sensor_id;sensor_type;location;lat;lon;timestamp;temperature;humidity
5588;DHT22;2816;49.778;9.986;2022-09-25T00:01:30;13.20;99.90
5588;DHT22;2816;49.778;9.986;2022-09-25T00:03:58;13.20;99.90
5588;DHT22;2816;49.778;9.986;2022-09-25T00:06:27;13.20;99.90
5588;DHT22;2816;49.778;9.986;2022-09-25T00:08:55;13.20;99.90
5588;DHT22;2816;49.778;9.986;2022-09-25T00:11:24;13.20;99.90
5588;DHT22;2816;49.778;9.986;2022-09-25T00:13:53;13.20;99.90
5588;DHT22;2816;49.778;9.986;2022-09-25T00:16:21;13.20;99.90
5588;DHT22;2816;49.778;9.986;2022-09-25T00:18:49;13.10;99.90
5588;DHT22;2816;49.778;9.986;2022-09-25T00:21:36;13.10;99.90
5588;DHT22;2816;49.778;9.986;2022-09-25T00:24:05;13.10;99.90
5588;DHT22;2816;49.778;9.986;2022-09-25T00:26:34;13.10;99.90
5588;DHT22;2816;49.778;9.986;2022-09-25T00:29:02;13.10;99.90
5588;DHT22;2816;49.778;9.986;2022-09-25T00:31:30;13.10;99.90
5588;DHT22;2816;49.778;9.986;2022-09-25T00:34:00;13.20;99.90
5588;DHT22;2816;49.778;9.986;2022-09-25T00:36:29;13.30;99.90
5588;DHT22;2816;49.778;9.986;2022-09-25T00:38:58;13.30;99.90
5588;DHT22;2816;49.778;9.986;2022-09-25T00:41:27;13.40;99.90
5588;DHT22;2816;49.778;9.986;2022-09-25T00:43:55;13.30;99.90
5588;DHT22;2816;49.778;9.986;2022-09-25T00:46:26;13.30;99.90
5588;DHT22;2816;49.778;9.986;2022-09-25T00:48:56;13.30;99.90
5588;DHT22;2816;49.778;9.986;2022-09-25T00:51:27;13.30;99.90
5588;DHT22;2816;49.778;9.986;2022-09-25T00:53:59;13.30;99.90
5588;DHT22;2816;49.778;9.986;2022-09-25T00:56:30;13.30;99.90
5588;DHT22;2816;49.778;9.986;2022-09-25T00:59:00;13.30;99.90
5588;DHT22;2816;49.778;9.986;2022-09-25T01:01:27;13.30;99.90
5588;DHT22;2816;49.778;9.986;2022-09-25T01:03:54;13.30;99.90
5588;DHT22;2816;49.778;9.986;2022-09-25T01:06:25;13.30;99.90
5588;DHT22;2816;49.778;9.986;2022-09-25T01:08:53;13.20;99.90
5588;DHT22;2816;49.778;9.986;2022-09-25T01:11:22;13.20;99.90
5588;DHT22;2816;49.778;9.986;2022-09-25T01:13:52;13.20;99.90
5588;DHT22;2816;49.778;9.986;2022-09-25T01:16:28;13.10;99.90
5588;DHT22;2816;49.778;9.986;2022-09-25T01:19:09;13.10;99.90
5588;DHT22;2816;49.778;9.986;2022-09-25T01:21:43;13.10;99.90
5588;DHT22;2816;49.778;9.986;2022-09-25T01:24:41;13.00;99.90
5588;DHT22;2816;49.778;9.986;2022-09-25T01:30:13;12.90;99.90
5588;DHT22;2816;49.778;9.986;2022-09-25T01:32:55;12.90;99.90
5588;DHT22;2816;49.778;9.986;2022-09-25T01:35:32;12.90;99.90
5588;DHT22;2816;49.778;9.986;2022-09-25T01:38:09;12.90;99.90
5588;DHT22;2816;49.778;9.986;2022-09-25T01:40:44;12.90;99.90
5588;DHT22;2816;49.778;9.986;2022-09-25T01:43:16;12.90;99.90
5588;DHT22;2816;49.778;9.986;2022-09-25T01:45:48;13.00;99.90
5588;DHT22;2816;49.778;9.986;2022-09-25T01:48:18;13.00;99.90
5588;DHT22;2816;49.778;9.986;2022-09-25T01:50:51;13.00;99.90
5588;DHT22;2816;49.778;9.986;2022-09-25T01:53:22;13.00;99.90
5588;DHT22;2816;49.778;9.986;2022-09-25T01:55:54;13.00;99.90
5588;DHT22;2816;49.778;9.986;2022-09-25T01:58:24;13.00;99.90
5588;DHT22;2816;49.778;9.986;2022-09-25T02:00:57;13.00;99.90
5588;DHT22;2816;49.778;9.986;2022-09-25T02:03:27;13.00;99.90
5588;DHT22;2816;49.778;9.986;2022-09-25T02:05:59;13.10;99.90
5588;DHT22;2816;49.778;9.986;2022-09-25T02:08:31;13.10;99.90
5588;DHT22;2816;49.778;9.986;2022-09-25T02:11:03;13.00;99.90
5588;DHT22;2816;49.778;9.986;2022-09-25T02:13:36;13.10;99.90
5588;DHT22;2816;49.778;9.986;2022-09-25T02:16:09;13.10;99.90
5588;DHT22;2816;49.778;9.986;2022-09-25T02:18:38;13.00;99.90
5588;DHT22;2816;49.778;9.986;2022-09-25T02:21:27;13.00;99.90
5588;DHT22;2816;49.778;9.986;2022-09-25T02:24:01;13.00;99.90
5588;DHT22;2816;49.778;9.986;2022-09-25T02:26:32;13.10;99.90
5588;DHT22;2816;49.778;9.986;2022-09-25T02:29:00;13.10;99.90
5588;DHT22;2816;49.778;9.986;2022-09-25T02:31:33;13.10;99.90
5588;DHT22;2816;49.778;9.986;2022-09-25T02:34:03;13.10;99.90
5588;DHT22;2816;49.778;9.986;2022-09-25T02:36:30;13.10;99.90
5588;DHT22;2816;49.778;9.986;2022-09-25T02:38:59;13.10;99.90
5588;DHT22;2816;49.778;9.986;2022-09-25T02:41:39;13.00;99.90
5588;DHT22;2816;49.778;9.986;2022-09-25T02:44:15;13.00;99.90
5588;DHT22;2816;49.778;9.986;2022-09-25T02:46:49;13.00;99.90
5588;DHT22;2816;49.778;9.986;2022-09-25T02:49:25;12.90;99.90
5588;DHT22;2816;49.778;9.986;2022-09-25T02:52:00;12.90;99.90
5588;DHT22;2816;49.778;9.986;2022-09-25T02:54:33;12.90;99.90
5588;DHT22;2816;49.778;9.986;2022-09-25T02:57:07;12.90;99.90
5588;DHT22;2816;49.778;9.986;2022-09-25T02:59:39;12.90;99.90
5588;DHT22;2816;49.778;9.986;2022-09-25T03:02:09;12.90;99.90
5588;DHT22;2816;49.778;9.986;2022-09-25T03:04:38;12.90;99.90
5588;DHT22;2816;49.778;9.986;2022-09-25T03:07:06;12.90;99.90
5588;DHT22;2816;49.778;9.986;2022-09-25T03:09:35;12.90;99.90
5588;DHT22;2816;49.778;9.986;2022-09-25T03:12:03;12.90;99.90
5588;DHT22;2816;49.778;9.986;2022-09-25T03:14:30;13.00;99.90
5588;DHT22;2816;49.778;9.986;2022-09-25T03:16:59;12.90;99.90
5588;DHT22;2816;49.778;9.986;2022-09-25T03:19:29;13.00;99.90
5588;DHT22;2816;49.778;9.986;2022-09-25T03:21:56;12.90;99.90
5588;DHT22;2816;49.778;9.986;2022-09-25T03:24:23;12.90;99.90
5588;DHT22;2816;49.778;9.986;2022-09-25T03:26:51;13.00;99.90
5588;DHT22;2816;49.778;9.986;2022-09-25T03:29:19;13.00;99.90
5588;DHT22;2816;49.778;9.986;2022-09-25T03:31:46;13.00;99.90
5588;DHT22;2816;49.778;9.986;2022-09-25T03:34:15;13.00;99.90
5588;DHT22;2816;49.778;9.986;2022-09-25T03:36:44;13.00;99.90
5588;DHT22;2816;49.778;9.986;2022-09-25T03:39:13;13.00;99.90
5588;DHT22;2816;49.778;9.986;2022-09-25T03:41:42;13.00;99.90
5588;DHT22;2816;49.778;9.986;2022-09-25T03:44:09;13.00;99.90
5588;DHT22;2816;49.778;9.986;2022-09-25T03:46:36;13.00;99.90
5588;DHT22;2816;49.778;9.986;2022-09-25T03:49:03;13.00;99.90
5588;DHT22;2816;49.778;9.986;2022-09-25T03:51:31;13.00;99.90
5588;DHT22;2816;49.778;9.986;2022-09-25T03:54:01;13.00;99.90
5588;DHT22;2816;49.778;9.986;2022-09-25T03:56:29;12.90;99.90
5588;DHT22;2816;49.778;9.986;2022-09-25T03:58:57;12.80;99.90
5588;DHT22;2816;49.778;9.986;2022-09-25T04:01:24;12.90;99.90
5588;DHT22;2816;49.778;9.986;2022-09-25T04:03:52;12.90;99.90
5588;DHT22;2816;49.778;9.986;2022-09-25T04:06:20;12.90;99.90
5588;DHT22;2816;49.778;9.986;2022-09-25T04:08:49;12.90;99.90
5588;DHT22;2816;49.778;9.986;2022-09-25T04:11:19;12.90;99.90
5588;DHT22;2816;49.778;9.986;2022-09-25T04:13:46;12.90;99.90
5588;DHT22;2816;49.778;9.986;2022-09-25T04:16:14;12.90;99.90
5588;DHT22;2816;49.778;9.986;2022-09-25T04:18:42;12.90;99.90
5588;DHT22;2816;49.778;9.986;2022-09-25T04:21:11;12.90;99.90
5588;DHT22;2816;49.778;9.986;2022-09-25T04:23:38;12.90;99.90
5588;DHT22;2816;49.778;9.986;2022-09-25T04:26:06;12.90;99.90
5588;DHT22;2816;49.778;9.986;2022-09-25T04:28:35;12.90;99.90
5588;DHT22;2816;49.778;9.986;2022-09-25T04:31:03;12.90;99.90
5588;DHT22;2816;49.778;9.986;2022-09-25T04:33:30;12.90;99.90
5588;DHT22;2816;49.778;9.986;2022-09-25T04:36:12;12.80;99.90
5588;DHT22;2816;49.778;9.986;2022-09-25T04:38:39;12.80;99.90
5588;DHT22;2816;49.778;9.986;2022-09-25T04:41:06;12.80;99.90
5588;DHT22;2816;49.778;9.986;2022-09-25T04:43:36;12.80;99.90
5588;DHT22;2816;49.778;9.986;2022-09-25T04:46:04;12.80;99.90
5588;DHT22;2816;49.778;9.986;2022-09-25T04:48:31;12.80;99.90
5588;DHT22;2816;49.778;9.986;2022-09-25T04:50:59;12.80;99.90
5588;DHT22;2816;49.778;9.986;2022-09-25T04:53:26;12.70;99.90
5588;DHT22;2816;49.778;9.986;2022-09-25T04:55:59;12.70;99.90
5588;DHT22;2816;49.778;9.986;2022-09-25T04:58:27;12.80;99.90
5588;DHT22;2816;49.778;9.986;2022-09-25T05:00:59;12.70;99.90
5588;DHT22;2816;49.778;9.986;2022-09-25T05:03:26;12.80;99.90
5588;DHT22;2816;49.778;9.986;2022-09-25T05:05:54;12.80;99.90
5588;DHT22;2816;49.778;9.986;2022-09-25T05:08:21;12.70;99.90
5588;DHT22;2816;49.778;9.986;2022-09-25T05:10:48;12.70;99.90
5588;DHT22;2816;49.778;9.986;2022-09-25T05:13:15;12.70;99.90
5588;DHT22;2816;49.778;9.986;2022-09-25T05:15:43;12.80;99.90
5588;DHT22;2816;49.778;9.986;2022-09-25T05:18:14;12.70;99.90
5588;DHT22;2816;49.778;9.986;2022-09-25T05:20:42;12.70;99.90
5588;DHT22;2816;49.778;9.986;2022-09-25T05:23:08;12.70;99.90
5588;DHT22;2816;49.778;9.986;2022-09-25T05:25:35;12.70;99.90
5588;DHT22;2816;49.778;9.986;2022-09-25T05:28:02;12.70;99.90
5588;DHT22;2816;49.778;9.986;2022-09-25T05:30:32;12.70;99.90
5588;DHT22;2816;49.778;9.986;2022-09-25T05:33:00;12.80;99.90
5588;DHT22;2816;49.778;9.986;2022-09-25T05:35:29;12.70;99.90
5588;DHT22;2816;49.778;9.986;2022-09-25T05:37:57;12.80;99.90
5588;DHT22;2816;49.778;9.986;2022-09-25T05:40:24;12.80;99.90
5588;DHT22;2816;49.778;9.986;2022-09-25T05:42:52;12.80;99.90
5588;DHT22;2816;49.778;9.986;2022-09-25T05:45:20;12.80;99.90
5588;DHT22;2816;49.778;9.986;2022-09-25T05:47:47;12.60;99.90
5588;DHT22;2816;49.778;9.986;2022-09-25T05:50:15;12.50;99.90
5588;DHT22;2816;49.778;9.986;2022-09-25T05:52:44;12.50;99.90
5588;DHT22;2816;49.778;9.986;2022-09-25T05:55:11;12.50;99.90
5588;DHT22;2816;49.778;9.986;2022-09-25T05:57:37;12.50;99.90
5588;DHT22;2816;49.778;9.986;2022-09-25T06:00:07;12.50;99.90
5588;DHT22;2816;49.778;9.986;2022-09-25T06:02:35;12.50;99.90
5588;DHT22;2816;49.778;9.986;2022-09-25T06:05:02;12.60;99.90
5588;DHT22;2816;49.778;9.986;2022-09-25T06:07:29;12.60;99.90
5588;DHT22;2816;49.778;9.986;2022-09-25T06:09:58;12.60;99.90
5588;DHT22;2816;49.778;9.986;2022-09-25T06:12:24;12.60;99.90
5588;DHT22;2816;49.778;9.986;2022-09-25T06:14:54;12.60;99.90
5588;DHT22;2816;49.778;9.986;2022-09-25T06:17:21;12.70;99.90
5588;DHT22;2816;49.778;9.986;2022-09-25T06:19:48;12.70;99.90
5588;DHT22;2816;49.778;9.986;2022-09-25T06:22:15;12.70;99.90
5588;DHT22;2816;49.778;9.986;2022-09-25T06:24:41;12.70;99.90
5588;DHT22;2816;49.778;9.986;2022-09-25T06:27:10;12.60;99.90
5588;DHT22;2816;49.778;9.986;2022-09-25T06:29:37;12.60;99.90
5588;DHT22;2816;49.778;9.986;2022-09-25T06:32:04;12.50;99.90
5588;DHT22;2816;49.778;9.986;2022-09-25T06:34:31;12.50;99.90
5588;DHT22;2816;49.778;9.986;2022-09-25T06:36:59;12.50;99.90
5588;DHT22;2816;49.778;9.986;2022-09-25T06:39:26;12.50;99.90
5588;DHT22;2816;49.778;9.986;2022-09-25T06:41:53;12.50;99.90
5588;DHT22;2816;49.778;9.986;2022-09-25T06:44:21;12.50;99.90
5588;DHT22;2816;49.778;9.986;2022-09-25T06:46:49;12.50;99.90
5588;DHT22;2816;49.778;9.986;2022-09-25T06:49:19;12.60;99.90
5588;DHT22;2816;49.778;9.986;2022-09-25T06:51:46;12.60;99.90
5588;DHT22;2816;49.778;9.986;2022-09-25T06:54:15;12.50;99.90
5588;DHT22;2816;49.778;9.986;2022-09-25T06:56:42;12.40;99.90
5588;DHT22;2816;49.778;9.986;2022-09-25T06:59:10;12.40;99.90
5588;DHT22;2816;49.778;9.986;2022-09-25T07:01:39;12.40;99.90
5588;DHT22;2816;49.778;9.986;2022-09-25T07:04:06;12.40;99.90
5588;DHT22;2816;49.778;9.986;2022-09-25T07:06:32;12.40;99.90
5588;DHT22;2816;49.778;9.986;2022-09-25T07:09:01;12.40;99.90
5588;DHT22;2816;49.778;9.986;2022-09-25T07:11:29;12.40;99.90
5588;DHT22;2816;49.778;9.986;2022-09-25T07:13:57;12.40;99.90
5588;DHT22;2816;49.778;9.986;2022-09-25T07:16:26;12.30;99.90
5588;DHT22;2816;49.778;9.986;2022-09-25T07:18:56;12.30;99.90
5588;DHT22;2816;49.778;9.986;2022-09-25T07:21:25;12.30;99.90
5588;DHT22;2816;49.778;9.986;2022-09-25T07:23:55;12.30;99.90
5588;DHT22;2816;49.778;9.986;2022-09-25T07:26:25;12.40;99.90
5588;DHT22;2816;49.778;9.986;2022-09-25T07:28:53;12.40;99.90
5588;DHT22;2816;49.778;9.986;2022-09-25T07:31:23;12.40;99.90
5588;DHT22;2816;49.778;9.986;2022-09-25T07:33:52;12.40;99.90
5588;DHT22;2816;49.778;9.986;2022-09-25T07:36:21;12.20;99.90
5588;DHT22;2816;49.778;9.986;2022-09-25T07:38:48;12.30;99.90
5588;DHT22;2816;49.778;9.986;2022-09-25T07:41:16;12.40;99.90
5588;DHT22;2816;49.778;9.986;2022-09-25T07:43:43;12.30;99.90
5588;DHT22;2816;49.778;9.986;2022-09-25T07:46:11;12.30;99.90
5588;DHT22;2816;49.778;9.986;2022-09-25T07:48:38;12.30;99.90
5588;DHT22;2816;49.778;9.986;2022-09-25T07:51:09;12.40;99.90
5588;DHT22;2816;49.778;9.986;2022-09-25T07:53:38;12.40;99.90
5588;DHT22;2816;49.778;9.986;2022-09-25T07:56:05;12.40;99.90
5588;DHT22;2816;49.778;9.986;2022-09-25T07:58:34;12.40;99.90
5588;DHT22;2816;49.778;9.986;2022-09-25T08:01:03;12.50;99.90
5588;DHT22;2816;49.778;9.986;2022-09-25T08:03:30;12.50;99.90
5588;DHT22;2816;49.778;9.986;2022-09-25T08:05:57;12.50;99.90
5588;DHT22;2816;49.778;9.986;2022-09-25T08:08:25;12.50;99.90
5588;DHT22;2816;49.778;9.986;2022-09-25T08:10:58;12.50;99.90
5588;DHT22;2816;49.778;9.986;2022-09-25T08:13:25;12.50;99.90
5588;DHT22;2816;49.778;9.986;2022-09-25T08:15:53;12.50;99.90
5588;DHT22;2816;49.778;9.986;2022-09-25T08:18:21;12.60;99.90
5588;DHT22;2816;49.778;9.986;2022-09-25T08:20:48;12.60;99.90
5588;DHT22;2816;49.778;9.986;2022-09-25T08:23:15;12.50;99.90
5588;DHT22;2816;49.778;9.986;2022-09-25T08:25:45;12.60;99.90
5588;DHT22;2816;49.778;9.986;2022-09-25T08:28:14;12.50;99.90
5588;DHT22;2816;49.778;9.986;2022-09-25T08:30:41;12.60;99.90
5588;DHT22;2816;49.778;9.986;2022-09-25T08:33:09;12.60;99.90
5588;DHT22;2816;49.778;9.986;2022-09-25T08:35:37;12.60;99.90
5588;DHT22;2816;49.778;9.986;2022-09-25T08:38:05;12.70;99.90
5588;DHT22;2816;49.778;9.986;2022-09-25T08:40:33;12.60;99.90
5588;DHT22;2816;49.778;9.986;2022-09-25T08:43:03;12.60;99.90
5588;DHT22;2816;49.778;9.986;2022-09-25T08:45:36;12.60;99.90
5588;DHT22;2816;49.778;9.986;2022-09-25T08:48:26;12.70;99.90
5588;DHT22;2816;49.778;9.986;2022-09-25T08:51:12;12.70;99.90
5588;DHT22;2816;49.778;9.986;2022-09-25T08:53:39;12.70;99.90
5588;DHT22;2816;49.778;9.986;2022-09-25T08:56:10;12.60;99.90
5588;DHT22;2816;49.778;9.986;2022-09-25T08:58:44;12.60;99.90
5588;DHT22;2816;49.778;9.986;2022-09-25T09:01:15;12.70;99.90
5588;DHT22;2816;49.778;9.986;2022-09-25T09:03:49;12.70;99.90
5588;DHT22;2816;49.778;9.986;2022-09-25T09:06:18;12.80;99.90
5588;DHT22;2816;49.778;9.986;2022-09-25T09:08:51;12.80;99.90
5588;DHT22;2816;49.778;9.986;2022-09-25T09:11:23;12.80;99.90
5588;DHT22;2816;49.778;9.986;2022-09-25T09:13:55;12.80;99.90
5588;DHT22;2816;49.778;9.986;2022-09-25T09:16:31;12.80;99.90
5588;DHT22;2816;49.778;9.986;2022-09-25T09:19:01;12.70;99.90
5588;DHT22;2816;49.778;9.986;2022-09-25T09:21:33;12.70;99.90
5588;DHT22;2816;49.778;9.986;2022-09-25T09:24:06;12.70;99.90
5588;DHT22;2816;49.778;9.986;2022-09-25T09:26:43;12.80;99.90
5588;DHT22;2816;49.778;9.986;2022-09-25T09:29:26;12.90;99.90
5588;DHT22;2816;49.778;9.986;2022-09-25T09:34:52;12.80;99.90
5588;DHT22;2816;49.778;9.986;2022-09-25T09:37:29;12.80;99.90
5588;DHT22;2816;49.778;9.986;2022-09-25T09:40:14;12.80;99.90
5588;DHT22;2816;49.778;9.986;2022-09-25T09:42:49;12.80;99.90
5588;DHT22;2816;49.778;9.986;2022-09-25T09:45:23;12.80;99.90
5588;DHT22;2816;49.778;9.986;2022-09-25T09:48:01;12.90;99.90
5588;DHT22;2816;49.778;9.986;2022-09-25T09:50:36;12.80;99.90
5588;DHT22;2816;49.778;9.986;2022-09-25T09:53:10;12.90;99.90
5588;DHT22;2816;49.778;9.986;2022-09-25T09:55:42;12.90;99.90
5588;DHT22;2816;49.778;9.986;2022-09-25T09:58:16;12.90;99.90
5588;DHT22;2816;49.778;9.986;2022-09-25T10:00:45;12.90;99.90
5588;DHT22;2816;49.778;9.986;2022-09-25T10:03:17;13.00;99.90
5588;DHT22;2816;49.778;9.986;2022-09-25T10:05:47;13.00;99.90
5588;DHT22;2816;49.778;9.986;2022-09-25T10:08:15;13.00;99.90
5588;DHT22;2816;49.778;9.986;2022-09-25T10:10:45;13.10;99.90
5588;DHT22;2816;49.778;9.986;2022-09-25T10:13:18;13.10;99.90
5588;DHT22;2816;49.778;9.986;2022-09-25T10:15:49;13.00;99.90
5588;DHT22;2816;49.778;9.986;2022-09-25T10:18:19;13.10;99.90
5588;DHT22;2816;49.778;9.986;2022-09-25T10:20:50;13.20;99.90
5588;DHT22;2816;49.778;9.986;2022-09-25T10:23:31;13.20;99.90
5588;DHT22;2816;49.778;9.986;2022-09-25T10:25:59;13.20;99.90
5588;DHT22;2816;49.778;9.986;2022-09-25T10:28:28;13.30;99.90
5588;DHT22;2816;49.778;9.986;2022-09-25T10:30:56;13.30;99.90
5588;DHT22;2816;49.778;9.986;2022-09-25T10:33:27;13.20;99.90
5588;DHT22;2816;49.778;9.986;2022-09-25T10:35:55;13.30;99.90
5588;DHT22;2816;49.778;9.986;2022-09-25T10:38:36;13.50;99.90
5588;DHT22;2816;49.778;9.986;2022-09-25T10:41:08;13.50;99.90
5588;DHT22;2816;49.778;9.986;2022-09-25T10:43:50;13.40;99.90
5588;DHT22;2816;49.778;9.986;2022-09-25T10:46:26;13.60;99.90
5588;DHT22;2816;49.778;9.986;2022-09-25T10:49:17;13.60;99.90
5588;DHT22;2816;49.778;9.986;2022-09-25T10:52:04;13.60;99.90
5588;DHT22;2816;49.778;9.986;2022-09-25T10:54:32;13.80;99.90
5588;DHT22;2816;49.778;9.986;2022-09-25T10:57:00;13.80;99.90
5588;DHT22;2816;49.778;9.986;2022-09-25T10:59:28;13.90;99.90
5588;DHT22;2816;49.778;9.986;2022-09-25T11:01:55;13.90;99.90
5588;DHT22;2816;49.778;9.986;2022-09-25T11:04:26;13.80;99.90
5588;DHT22;2816;49.778;9.986;2022-09-25T11:06:56;13.90;99.90
5588;DHT22;2816;49.778;9.986;2022-09-25T11:09:27;13.90;99.90
5588;DHT22;2816;49.778;9.986;2022-09-25T11:12:05;14.00;99.90
5588;DHT22;2816;49.778;9.986;2022-09-25T11:14:34;14.10;99.90
5588;DHT22;2816;49.778;9.986;2022-09-25T11:17:03;14.10;99.90
5588;DHT22;2816;49.778;9.986;2022-09-25T11:19:34;14.10;99.90
5588;DHT22;2816;49.778;9.986;2022-09-25T11:22:14;14.10;99.90
5588;DHT22;2816;49.778;9.986;2022-09-25T11:24:51;14.20;99.90
5588;DHT22;2816;49.778;9.986;2022-09-25T11:27:22;14.50;99.90
5588;DHT22;2816;49.778;9.986;2022-09-25T11:30:01;14.80;99.90
5588;DHT22;2816;49.778;9.986;2022-09-25T11:32:33;14.90;99.90
5588;DHT22;2816;49.778;9.986;2022-09-25T11:35:22;15.00;99.90
5588;DHT22;2816;49.778;9.986;2022-09-25T11:38:00;14.90;99.90
5588;DHT22;2816;49.778;9.986;2022-09-25T11:40:55;15.00;99.90
5588;DHT22;2816;49.778;9.986;2022-09-25T11:43:57;15.10;99.90
5588;DHT22;2816;49.778;9.986;2022-09-25T11:46:35;14.90;99.90
5588;DHT22;2816;49.778;9.986;2022-09-25T11:49:12;14.80;99.90
5588;DHT22;2816;49.778;9.986;2022-09-25T11:54:52;14.90;99.90
5588;DHT22;2816;49.778;9.986;2022-09-25T11:57:29;15.00;99.90
5588;DHT22;2816;49.778;9.986;2022-09-25T12:00:06;15.20;99.90
5588;DHT22;2816;49.778;9.986;2022-09-25T12:02:50;15.10;99.90
5588;DHT22;2816;49.778;9.986;2022-09-25T12:05:37;15.10;99.90
5588;DHT22;2816;49.778;9.986;2022-09-25T12:08:19;15.30;99.90
5588;DHT22;2816;49.778;9.986;2022-09-25T12:10:55;15.40;99.90
5588;DHT22;2816;49.778;9.986;2022-09-25T12:13:32;15.40;99.90
5588;DHT22;2816;49.778;9.986;2022-09-25T12:16:10;15.20;99.90
5588;DHT22;2816;49.778;9.986;2022-09-25T12:18:58;15.20;99.90
5588;DHT22;2816;49.778;9.986;2022-09-25T12:21:32;15.30;99.90
5588;DHT22;2816;49.778;9.986;2022-09-25T12:24:07;15.30;99.90
5588;DHT22;2816;49.778;9.986;2022-09-25T12:26:43;15.40;99.90
5588;DHT22;2816;49.778;9.986;2022-09-25T12:29:28;15.40;99.90
5588;DHT22;2816;49.778;9.986;2022-09-25T12:32:02;15.40;99.90
5588;DHT22;2816;49.778;9.986;2022-09-25T12:34:40;15.30;99.90
5588;DHT22;2816;49.778;9.986;2022-09-25T12:37:16;15.10;99.90
5588;DHT22;2816;49.778;9.986;2022-09-25T12:39:50;15.20;99.90
5588;DHT22;2816;49.778;9.986;2022-09-25T12:42:22;15.20;99.90
5588;DHT22;2816;49.778;9.986;2022-09-25T12:44:56;15.20;99.90
5588;DHT22;2816;49.778;9.986;2022-09-25T12:47:30;15.20;99.90
5588;DHT22;2816;49.778;9.986;2022-09-25T12:50:11;15.30;99.90
5588;DHT22;2816;49.778;9.986;2022-09-25T12:52:43;15.20;99.90
5588;DHT22;2816;49.778;9.986;2022-09-25T12:55:15;15.30;99.90
5588;DHT22;2816;49.778;9.986;2022-09-25T12:57:48;15.30;99.90
5588;DHT22;2816;49.778;9.986;2022-09-25T13:00:20;15.30;99.90
5588;DHT22;2816;49.778;9.986;2022-09-25T13:02:54;15.30;99.90
5588;DHT22;2816;49.778;9.986;2022-09-25T13:05:26;15.30;99.90
5588;DHT22;2816;49.778;9.986;2022-09-25T13:08:03;15.30;99.90
5588;DHT22;2816;49.778;9.986;2022-09-25T13:10:38;15.30;99.90
5588;DHT22;2816;49.778;9.986;2022-09-25T13:13:11;15.30;99.90
5588;DHT22;2816;49.778;9.986;2022-09-25T13:15:47;15.20;99.90
5588;DHT22;2816;49.778;9.986;2022-09-25T13:18:16;15.10;99.90
5588;DHT22;2816;49.778;9.986;2022-09-25T13:20:51;15.10;99.90
5588;DHT22;2816;49.778;9.986;2022-09-25T13:23:33;15.20;99.90
5588;DHT22;2816;49.778;9.986;2022-09-25T13:26:08;15.20;99.90
5588;DHT22;2816;49.778;9.986;2022-09-25T13:28:48;15.30;99.90
5588;DHT22;2816;49.778;9.986;2022-09-25T13:31:22;15.20;99.90
5588;DHT22;2816;49.778;9.986;2022-09-25T13:33:52;15.30;99.90
5588;DHT22;2816;49.778;9.986;2022-09-25T13:36:39;15.30;99.90
5588;DHT22;2816;49.778;9.986;2022-09-25T13:39:20;15.20;99.90
5588;DHT22;2816;49.778;9.986;2022-09-25T13:42:11;15.10;99.90
5588;DHT22;2816;49.778;9.986;2022-09-25T13:45:03;15.10;99.90
5588;DHT22;2816;49.778;9.986;2022-09-25T13:48:02;15.00;99.90
5588;DHT22;2816;49.778;9.986;2022-09-25T13:50:34;14.90;99.90
5588;DHT22;2816;49.778;9.986;2022-09-25T13:53:24;14.80;99.90
5588;DHT22;2816;49.778;9.986;2022-09-25T13:56:25;14.70;99.90
5588;DHT22;2816;49.778;9.986;2022-09-25T13:59:36;14.70;99.90
5588;DHT22;2816;49.778;9.986;2022-09-25T14:02:33;14.80;99.90
5588;DHT22;2816;49.778;9.986;2022-09-25T14:05:04;14.80;99.90
5588;DHT22;2816;49.778;9.986;2022-09-25T14:07:31;14.80;99.90
5588;DHT22;2816;49.778;9.986;2022-09-25T14:09:59;14.80;99.90
5588;DHT22;2816;49.778;9.986;2022-09-25T14:12:32;14.80;99.90
5588;DHT22;2816;49.778;9.986;2022-09-25T14:15:03;14.90;99.90
5588;DHT22;2816;49.778;9.986;2022-09-25T14:17:34;14.80;99.90
5588;DHT22;2816;49.778;9.986;2022-09-25T14:20:04;14.90;99.90
5588;DHT22;2816;49.778;9.986;2022-09-25T14:22:37;14.90;99.90
5588;DHT22;2816;49.778;9.986;2022-09-25T14:25:25;15.00;99.90
5588;DHT22;2816;49.778;9.986;2022-09-25T14:27:53;15.00;99.90
5588;DHT22;2816;49.778;9.986;2022-09-25T14:30:20;15.00;99.90
5588;DHT22;2816;49.778;9.986;2022-09-25T14:33:04;15.00;99.90
5588;DHT22;2816;49.778;9.986;2022-09-25T14:35:38;15.00;99.90
5588;DHT22;2816;49.778;9.986;2022-09-25T14:38:22;15.00;99.90
5588;DHT22;2816;49.778;9.986;2022-09-25T14:41:09;14.90;99.90
5588;DHT22;2816;49.778;9.986;2022-09-25T14:44:10;14.80;99.90
5588;DHT22;2816;49.778;9.986;2022-09-25T14:46:42;14.90;99.90
5588;DHT22;2816;49.778;9.986;2022-09-25T14:49:21;14.90;99.90
5588;DHT22;2816;49.778;9.986;2022-09-25T14:51:53;14.90;99.90
5588;DHT22;2816;49.778;9.986;2022-09-25T14:54:22;14.80;99.90
5588;DHT22;2816;49.778;9.986;2022-09-25T14:56:54;14.70;99.90
5588;DHT22;2816;49.778;9.986;2022-09-25T14:59:28;14.60;99.90
5588;DHT22;2816;49.778;9.986;2022-09-25T15:01:57;14.60;99.90
5588;DHT22;2816;49.778;9.986;2022-09-25T15:04:29;14.60;99.90
5588;DHT22;2816;49.778;9.986;2022-09-25T15:07:00;14.50;99.90
5588;DHT22;2816;49.778;9.986;2022-09-25T15:09:32;14.40;99.90
5588;DHT22;2816;49.778;9.986;2022-09-25T15:12:08;14.40;99.90
5588;DHT22;2816;49.778;9.986;2022-09-25T15:14:56;14.30;99.90
5588;DHT22;2816;49.778;9.986;2022-09-25T15:17:24;14.30;99.90
5588;DHT22;2816;49.778;9.986;2022-09-25T15:19:51;14.40;99.90
5588;DHT22;2816;49.778;9.986;2022-09-25T15:22:21;14.40;99.90
5588;DHT22;2816;49.778;9.986;2022-09-25T15:24:51;14.20;99.90
5588;DHT22;2816;49.778;9.986;2022-09-25T15:27:19;14.20;99.90
5588;DHT22;2816;49.778;9.986;2022-09-25T15:29:48;14.20;99.90
5588;DHT22;2816;49.778;9.986;2022-09-25T15:32:18;14.10;99.90
5588;DHT22;2816;49.778;9.986;2022-09-25T15:34:46;14.00;99.90
5588;DHT22;2816;49.778;9.986;2022-09-25T15:37:20;14.00;99.90
5588;DHT22;2816;49.778;9.986;2022-09-25T15:39:50;13.80;99.90
5588;DHT22;2816;49.778;9.986;2022-09-25T15:42:18;13.80;99.90
5588;DHT22;2816;49.778;9.986;2022-09-25T15:44:45;13.70;99.90
5588;DHT22;2816;49.778;9.986;2022-09-25T15:50:21;13.60;99.90
5588;DHT22;2816;49.778;9.986;2022-09-25T15:52:53;13.50;99.90
5588;DHT22;2816;49.778;9.986;2022-09-25T15:55:21;13.60;99.90
5588;DHT22;2816;49.778;9.986;2022-09-25T15:57:51;13.60;99.90
5588;DHT22;2816;49.778;9.986;2022-09-25T16:00:21;13.50;99.90
5588;DHT22;2816;49.778;9.986;2022-09-25T16:03:14;13.50;99.90
5588;DHT22;2816;49.778;9.986;2022-09-25T16:06:01;13.60;99.90
5588;DHT22;2816;49.778;9.986;2022-09-25T16:08:31;13.60;99.90
5588;DHT22;2816;49.778;9.986;2022-09-25T16:11:05;13.60;99.90
5588;DHT22;2816;49.778;9.986;2022-09-25T16:13:41;13.50;99.90
5588;DHT22;2816;49.778;9.986;2022-09-25T16:19:19;13.50;99.90
5588;DHT22;2816;49.778;9.986;2022-09-25T16:21:52;13.50;99.90
5588;DHT22;2816;49.778;9.986;2022-09-25T16:24:22;13.60;99.90
5588;DHT22;2816;49.778;9.986;2022-09-25T16:26:53;13.70;99.90
5588;DHT22;2816;49.778;9.986;2022-09-25T16:29:23;13.70;99.90
5588;DHT22;2816;49.778;9.986;2022-09-25T16:31:51;13.60;99.90
5588;DHT22;2816;49.778;9.986;2022-09-25T16:34:24;13.60;99.90
5588;DHT22;2816;49.778;9.986;2022-09-25T16:36:55;13.50;99.90
5588;DHT22;2816;49.778;9.986;2022-09-25T16:39:27;13.50;99.90
5588;DHT22;2816;49.778;9.986;2022-09-25T16:41:54;13.50;99.90
5588;DHT22;2816;49.778;9.986;2022-09-25T16:44:36;13.50;99.90
5588;DHT22;2816;49.778;9.986;2022-09-25T16:47:14;13.40;99.90
5588;DHT22;2816;49.778;9.986;2022-09-25T16:49:43;13.30;99.90